sensor_id;sensor_type;location;lat;lon;timestamp;temperature;humidity
20560;DHT22;10438;51.454;6.718;2023-07-22T00:00:05;15.10;99.90
20560;DHT22;10438;51.454;6.718;2023-07-22T00:02:31;15.10;99.90
20560;DHT22;10438;51.454;6.718;2023-07-22T00:04:57;15.10;99.90
20560;DHT22;10438;51.454;6.718;2023-07-22T00:07:22;15.10;99.90
20560;DHT22;10438;51.454;6.718;2023-07-22T00:09:48;15.10;99.90
20560;DHT22;10438;51.454;6.718;2023-07-22T00:12:15;15.20;99.90
20560;DHT22;10438;51.454;6.718;2023-07-22T00:14:41;15.20;99.90
20560;DHT22;10438;51.454;6.718;2023-07-22T00:17:07;15.20;99.90
20560;DHT22;10438;51.454;6.718;2023-07-22T00:19:33;15.30;99.90
20560;DHT22;10438;51.454;6.718;2023-07-22T00:21:59;15.30;99.90
20560;DHT22;10438;51.454;6.718;2023-07-22T00:24:25;15.40;99.90
20560;DHT22;10438;51.454;6.718;2023-07-22T00:26:50;15.40;99.90
20560;DHT22;10438;51.454;6.718;2023-07-22T00:29:16;15.40;99.90
20560;DHT22;10438;51.454;6.718;2023-07-22T00:31:42;15.40;99.90
20560;DHT22;10438;51.454;6.718;2023-07-22T00:34:08;15.30;99.90
20560;DHT22;10438;51.454;6.718;2023-07-22T00:36:34;15.40;99.90
20560;DHT22;10438;51.454;6.718;2023-07-22T00:38:59;15.40;99.90
20560;DHT22;10438;51.454;6.718;2023-07-22T00:41:27;15.40;99.90
20560;DHT22;10438;51.454;6.718;2023-07-22T00:43:52;15.40;99.90
20560;DHT22;10438;51.454;6.718;2023-07-22T00:46:18;15.40;99.90
20560;DHT22;10438;51.454;6.718;2023-07-22T00:48:43;15.40;99.90
20560;DHT22;10438;51.454;6.718;2023-07-22T00:51:09;15.40;99.90
20560;DHT22;10438;51.454;6.718;2023-07-22T00:53:35;15.30;99.90
20560;DHT22;10438;51.454;6.718;2023-07-22T00:56:00;15.40;99.90
20560;DHT22;10438;51.454;6.718;2023-07-22T00:58:26;15.30;99.90
20560;DHT22;10438;51.454;6.718;2023-07-22T01:00:51;15.30;99.90
20560;DHT22;10438;51.454;6.718;2023-07-22T01:03:17;15.30;99.90
20560;DHT22;10438;51.454;6.718;2023-07-22T01:05:46;15.30;99.90
20560;DHT22;10438;51.454;6.718;2023-07-22T01:08:13;15.30;99.90
20560;DHT22;10438;51.454;6.718;2023-07-22T01:10:39;15.30;99.90
20560;DHT22;10438;51.454;6.718;2023-07-22T01:13:05;15.30;99.90
20560;DHT22;10438;51.454;6.718;2023-07-22T01:15:30;15.30;99.90
20560;DHT22;10438;51.454;6.718;2023-07-22T01:17:56;15.30;99.90
20560;DHT22;10438;51.454;6.718;2023-07-22T01:20:29;15.30;99.90
20560;DHT22;10438;51.454;6.718;2023-07-22T01:22:55;15.30;99.90
20560;DHT22;10438;51.454;6.718;2023-07-22T01:25:21;15.30;99.90
20560;DHT22;10438;51.454;6.718;2023-07-22T01:27:48;15.30;99.90
20560;DHT22;10438;51.454;6.718;2023-07-22T01:30:14;15.30;99.90
20560;DHT22;10438;51.454;6.718;2023-07-22T01:32:40;15.30;99.90
20560;DHT22;10438;51.454;6.718;2023-07-22T01:35:06;15.30;99.90
20560;DHT22;10438;51.454;6.718;2023-07-22T01:37:33;15.20;99.90
20560;DHT22;10438;51.454;6.718;2023-07-22T01:39:59;15.20;99.90
20560;DHT22;10438;51.454;6.718;2023-07-22T01:42:25;15.20;99.90
20560;DHT22;10438;51.454;6.718;2023-07-22T01:44:50;15.20;99.90
20560;DHT22;10438;51.454;6.718;2023-07-22T01:47:16;15.20;99.90
20560;DHT22;10438;51.454;6.718;2023-07-22T01:49:41;15.20;99.90
20560;DHT22;10438;51.454;6.718;2023-07-22T01:52:07;15.20;99.90
20560;DHT22;10438;51.454;6.718;2023-07-22T01:54:33;15.20;99.90
20560;DHT22;10438;51.454;6.718;2023-07-22T01:56:58;15.30;99.90
20560;DHT22;10438;51.454;6.718;2023-07-22T01:59:24;15.30;99.90
20560;DHT22;10438;51.454;6.718;2023-07-22T02:01:50;15.30;99.90
20560;DHT22;10438;51.454;6.718;2023-07-22T02:04:16;15.30;99.90
20560;DHT22;10438;51.454;6.718;2023-07-22T02:06:42;15.30;99.90
20560;DHT22;10438;51.454;6.718;2023-07-22T02:09:08;15.30;99.90
20560;DHT22;10438;51.454;6.718;2023-07-22T02:11:36;15.30;99.90
20560;DHT22;10438;51.454;6.718;2023-07-22T02:14:02;15.20;99.90
20560;DHT22;10438;51.454;6.718;2023-07-22T02:16:29;15.20;99.90
20560;DHT22;10438;51.454;6.718;2023-07-22T02:18:54;15.20;99.90
20560;DHT22;10438;51.454;6.718;2023-07-22T02:21:19;15.20;99.90
20560;DHT22;10438;51.454;6.718;2023-07-22T02:23:45;15.20;99.90
20560;DHT22;10438;51.454;6.718;2023-07-22T02:26:10;15.20;99.90
20560;DHT22;10438;51.454;6.718;2023-07-22T02:28:36;15.20;99.90
20560;DHT22;10438;51.454;6.718;2023-07-22T02:31:03;15.20;99.90
20560;DHT22;10438;51.454;6.718;2023-07-22T02:33:31;15.10;99.90
20560;DHT22;10438;51.454;6.718;2023-07-22T02:35:57;15.10;99.90
20560;DHT22;10438;51.454;6.718;2023-07-22T02:38:23;15.10;99.90
20560;DHT22;10438;51.454;6.718;2023-07-22T02:40:48;15.10;99.90
20560;DHT22;10438;51.454;6.718;2023-07-22T02:43:14;15.10;99.90
20560;DHT22;10438;51.454;6.718;2023-07-22T02:45:40;15.10;99.90
20560;DHT22;10438;51.454;6.718;2023-07-22T02:48:06;15.10;99.90
20560;DHT22;10438;51.454;6.718;2023-07-22T02:50:32;15.10;99.90
20560;DHT22;10438;51.454;6.718;2023-07-22T02:52:57;15.00;99.90
20560;DHT22;10438;51.454;6.718;2023-07-22T02:55:23;15.00;99.90
20560;DHT22;10438;51.454;6.718;2023-07-22T02:57:49;15.00;99.90
20560;DHT22;10438;51.454;6.718;2023-07-22T03:00:16;15.00;99.90
20560;DHT22;10438;51.454;6.718;2023-07-22T03:02:52;15.00;99.90
20560;DHT22;10438;51.454;6.718;2023-07-22T03:05:18;14.90;99.90
20560;DHT22;10438;51.454;6.718;2023-07-22T03:07:44;14.90;99.90
20560;DHT22;10438;51.454;6.718;2023-07-22T03:10:10;14.90;99.90
20560;DHT22;10438;51.454;6.718;2023-07-22T03:12:36;14.90;99.90
20560;DHT22;10438;51.454;6.718;2023-07-22T03:15:03;14.90;99.90
20560;DHT22;10438;51.454;6.718;2023-07-22T03:17:29;14.90;99.90
20560;DHT22;10438;51.454;6.718;2023-07-22T03:19:55;14.80;99.90
20560;DHT22;10438;51.454;6.718;2023-07-22T03:22:20;14.80;99.90
20560;DHT22;10438;51.454;6.718;2023-07-22T03:24:46;14.80;99.90
20560;DHT22;10438;51.454;6.718;2023-07-22T03:27:13;14.80;99.90
20560;DHT22;10438;51.454;6.718;2023-07-22T03:29:40;14.80;99.90
20560;DHT22;10438;51.454;6.718;2023-07-22T03:32:06;14.80;99.90
20560;DHT22;10438;51.454;6.718;2023-07-22T03:34:32;14.80;99.90
20560;DHT22;10438;51.454;6.718;2023-07-22T03:36:57;14.80;99.90
20560;DHT22;10438;51.454;6.718;2023-07-22T03:39:24;14.80;99.90
20560;DHT22;10438;51.454;6.718;2023-07-22T03:41:49;14.80;99.90
20560;DHT22;10438;51.454;6.718;2023-07-22T03:44:15;14.80;99.90
20560;DHT22;10438;51.454;6.718;2023-07-22T03:46:40;14.80;99.90
20560;DHT22;10438;51.454;6.718;2023-07-22T03:49:06;14.80;99.90
20560;DHT22;10438;51.454;6.718;2023-07-22T03:51:32;14.80;99.90
20560;DHT22;10438;51.454;6.718;2023-07-22T03:53:58;14.70;99.90
20560;DHT22;10438;51.454;6.718;2023-07-22T03:56:24;14.70;99.90
20560;DHT22;10438;51.454;6.718;2023-07-22T03:58:52;14.70;99.90
20560;DHT22;10438;51.454;6.718;2023-07-22T04:01:18;14.70;99.90
20560;DHT22;10438;51.454;6.718;2023-07-22T04:03:44;14.60;99.90
20560;DHT22;10438;51.454;6.718;2023-07-22T04:06:09;14.60;99.90
20560;DHT22;10438;51.454;6.718;2023-07-22T04:08:35;14.60;99.90
20560;DHT22;10438;51.454;6.718;2023-07-22T04:11:00;14.60;99.90
20560;DHT22;10438;51.454;6.718;2023-07-22T04:13:26;14.70;99.90
20560;DHT22;10438;51.454;6.718;2023-07-22T04:15:52;14.60;99.90
20560;DHT22;10438;51.454;6.718;2023-07-22T04:18:19;14.70;99.90
20560;DHT22;10438;51.454;6.718;2023-07-22T04:20:45;14.70;99.90
20560;DHT22;10438;51.454;6.718;2023-07-22T04:23:12;14.70;99.90
20560;DHT22;10438;51.454;6.718;2023-07-22T04:25:44;14.70;99.90
20560;DHT22;10438;51.454;6.718;2023-07-22T04:28:10;14.70;99.90
20560;DHT22;10438;51.454;6.718;2023-07-22T04:30:36;14.70;99.90
20560;DHT22;10438;51.454;6.718;2023-07-22T04:33:02;14.70;99.90
20560;DHT22;10438;51.454;6.718;2023-07-22T04:35:38;14.70;99.90
20560;DHT22;10438;51.454;6.718;2023-07-22T04:38:04;14.70;99.90
20560;DHT22;10438;51.454;6.718;2023-07-22T04:40:30;14.70;99.90
20560;DHT22;10438;51.454;6.718;2023-07-22T04:42:56;14.70;99.90
20560;DHT22;10438;51.454;6.718;2023-07-22T04:45:22;14.80;99.90
20560;DHT22;10438;51.454;6.718;2023-07-22T04:47:49;14.80;99.90
20560;DHT22;10438;51.454;6.718;2023-07-22T04:50:16;14.80;99.90
20560;DHT22;10438;51.454;6.718;2023-07-22T04:52:44;14.90;99.90
20560;DHT22;10438;51.454;6.718;2023-07-22T04:55:10;14.90;99.90
20560;DHT22;10438;51.454;6.718;2023-07-22T04:57:37;14.90;99.90
20560;DHT22;10438;51.454;6.718;2023-07-22T05:00:03;14.90;99.90
20560;DHT22;10438;51.454;6.718;2023-07-22T05:02:30;14.90;99.90
20560;DHT22;10438;51.454;6.718;2023-07-22T05:04:58;14.80;99.90
20560;DHT22;10438;51.454;6.718;2023-07-22T05:07:23;14.80;99.90
20560;DHT22;10438;51.454;6.718;2023-07-22T05:09:49;14.70;99.90
20560;DHT22;10438;51.454;6.718;2023-07-22T05:12:15;14.70;99.90
20560;DHT22;10438;51.454;6.718;2023-07-22T05:14:40;14.70;99.90
20560;DHT22;10438;51.454;6.718;2023-07-22T05:17:06;14.70;99.90
20560;DHT22;10438;51.454;6.718;2023-07-22T05:19:32;14.70;99.90
20560;DHT22;10438;51.454;6.718;2023-07-22T05:21:57;14.70;99.90
20560;DHT22;10438;51.454;6.718;2023-07-22T05:24:23;14.60;99.90
20560;DHT22;10438;51.454;6.718;2023-07-22T05:26:48;14.60;99.90
20560;DHT22;10438;51.454;6.718;2023-07-22T05:29:14;14.60;99.90
20560;DHT22;10438;51.454;6.718;2023-07-22T05:31:39;14.60;99.90
20560;DHT22;10438;51.454;6.718;2023-07-22T05:34:05;14.60;99.90
20560;DHT22;10438;51.454;6.718;2023-07-22T05:36:30;14.60;99.90
20560;DHT22;10438;51.454;6.718;2023-07-22T05:38:57;14.70;99.90
20560;DHT22;10438;51.454;6.718;2023-07-22T05:41:22;14.70;99.90
20560;DHT22;10438;51.454;6.718;2023-07-22T05:43:48;14.80;99.90
20560;DHT22;10438;51.454;6.718;2023-07-22T05:46:14;14.80;99.90
20560;DHT22;10438;51.454;6.718;2023-07-22T05:48:39;14.90;99.90
20560;DHT22;10438;51.454;6.718;2023-07-22T05:51:05;14.90;99.90
20560;DHT22;10438;51.454;6.718;2023-07-22T05:53:32;14.90;99.90
20560;DHT22;10438;51.454;6.718;2023-07-22T05:55:57;15.00;99.90
20560;DHT22;10438;51.454;6.718;2023-07-22T05:58:23;15.00;99.90
20560;DHT22;10438;51.454;6.718;2023-07-22T06:00:48;15.10;99.90
20560;DHT22;10438;51.454;6.718;2023-07-22T06:03:14;15.10;99.90
20560;DHT22;10438;51.454;6.718;2023-07-22T06:05:40;15.20;99.90
20560;DHT22;10438;51.454;6.718;2023-07-22T06:08:05;15.30;99.90
20560;DHT22;10438;51.454;6.718;2023-07-22T06:10:31;15.30;99.90
20560;DHT22;10438;51.454;6.718;2023-07-22T06:12:57;15.40;99.90
20560;DHT22;10438;51.454;6.718;2023-07-22T06:15:23;15.40;99.90
20560;DHT22;10438;51.454;6.718;2023-07-22T06:17:48;15.40;99.90
20560;DHT22;10438;51.454;6.718;2023-07-22T06:20:14;15.50;99.90
20560;DHT22;10438;51.454;6.718;2023-07-22T06:22:39;15.60;99.90
20560;DHT22;10438;51.454;6.718;2023-07-22T06:25:05;15.70;99.90
20560;DHT22;10438;51.454;6.718;2023-07-22T06:27:31;15.80;99.90
20560;DHT22;10438;51.454;6.718;2023-07-22T06:29:57;15.80;99.90
20560;DHT22;10438;51.454;6.718;2023-07-22T06:32:23;15.90;99.90
20560;DHT22;10438;51.454;6.718;2023-07-22T06:34:49;16.00;99.90
20560;DHT22;10438;51.454;6.718;2023-07-22T06:37:14;16.10;99.90
20560;DHT22;10438;51.454;6.718;2023-07-22T06:39:40;16.20;99.90
20560;DHT22;10438;51.454;6.718;2023-07-22T06:42:06;16.30;99.90
20560;DHT22;10438;51.454;6.718;2023-07-22T06:44:31;16.40;99.90
20560;DHT22;10438;51.454;6.718;2023-07-22T06:46:57;16.40;99.90
20560;DHT22;10438;51.454;6.718;2023-07-22T06:49:22;16.50;99.90
20560;DHT22;10438;51.454;6.718;2023-07-22T06:51:48;16.40;99.90
20560;DHT22;10438;51.454;6.718;2023-07-22T06:54:14;16.50;99.90
20560;DHT22;10438;51.454;6.718;2023-07-22T06:56:40;16.50;99.90
20560;DHT22;10438;51.454;6.718;2023-07-22T06:59:05;16.50;99.90
20560;DHT22;10438;51.454;6.718;2023-07-22T07:01:31;16.50;99.90
20560;DHT22;10438;51.454;6.718;2023-07-22T07:03:56;16.50;99.90
20560;DHT22;10438;51.454;6.718;2023-07-22T07:06:22;16.50;99.90
20560;DHT22;10438;51.454;6.718;2023-07-22T07:08:47;16.60;99.90
20560;DHT22;10438;51.454;6.718;2023-07-22T07:11:14;16.60;99.90
20560;DHT22;10438;51.454;6.718;2023-07-22T07:13:40;16.70;99.90
20560;DHT22;10438;51.454;6.718;2023-07-22T07:16:29;16.70;99.90
20560;DHT22;10438;51.454;6.718;2023-07-22T07:18:56;16.70;99.90
20560;DHT22;10438;51.454;6.718;2023-07-22T07:21:23;16.70;99.90
20560;DHT22;10438;51.454;6.718;2023-07-22T07:23:49;16.80;99.90
20560;DHT22;10438;51.454;6.718;2023-07-22T07:26:15;16.80;99.90
20560;DHT22;10438;51.454;6.718;2023-07-22T07:28:41;16.90;99.90
20560;DHT22;10438;51.454;6.718;2023-07-22T07:31:06;16.90;99.90
20560;DHT22;10438;51.454;6.718;2023-07-22T07:33:33;16.90;99.90
20560;DHT22;10438;51.454;6.718;2023-07-22T07:35:59;17.00;99.90
20560;DHT22;10438;51.454;6.718;2023-07-22T07:38:24;16.90;99.90
20560;DHT22;10438;51.454;6.718;2023-07-22T07:40:55;16.90;99.90
20560;DHT22;10438;51.454;6.718;2023-07-22T07:43:21;16.90;99.90
20560;DHT22;10438;51.454;6.718;2023-07-22T07:45:46;17.00;99.90
20560;DHT22;10438;51.454;6.718;2023-07-22T07:48:12;17.10;99.90
20560;DHT22;10438;51.454;6.718;2023-07-22T07:50:37;17.30;99.90
20560;DHT22;10438;51.454;6.718;2023-07-22T07:53:03;17.40;99.90
20560;DHT22;10438;51.454;6.718;2023-07-22T07:55:28;17.50;99.90
20560;DHT22;10438;51.454;6.718;2023-07-22T07:57:54;17.50;99.90
20560;DHT22;10438;51.454;6.718;2023-07-22T08:00:20;17.70;99.90
20560;DHT22;10438;51.454;6.718;2023-07-22T08:02:48;17.80;99.90
20560;DHT22;10438;51.454;6.718;2023-07-22T08:05:15;18.00;99.90
20560;DHT22;10438;51.454;6.718;2023-07-22T08:07:41;18.00;99.90
20560;DHT22;10438;51.454;6.718;2023-07-22T08:10:07;18.10;99.90
20560;DHT22;10438;51.454;6.718;2023-07-22T08:12:33;18.20;99.90
20560;DHT22;10438;51.454;6.718;2023-07-22T08:14:59;18.40;99.90
20560;DHT22;10438;51.454;6.718;2023-07-22T08:17:25;18.60;99.90
20560;DHT22;10438;51.454;6.718;2023-07-22T08:19:51;18.60;99.90
20560;DHT22;10438;51.454;6.718;2023-07-22T08:22:16;18.70;99.90
20560;DHT22;10438;51.454;6.718;2023-07-22T08:24:43;18.80;99.90
20560;DHT22;10438;51.454;6.718;2023-07-22T08:27:08;18.90;99.90
20560;DHT22;10438;51.454;6.718;2023-07-22T08:29:34;19.00;99.90
20560;DHT22;10438;51.454;6.718;2023-07-22T08:32:00;18.90;99.90
20560;DHT22;10438;51.454;6.718;2023-07-22T08:34:25;18.70;99.90
20560;DHT22;10438;51.454;6.718;2023-07-22T08:36:51;18.70;99.90
20560;DHT22;10438;51.454;6.718;2023-07-22T08:39:18;19.10;99.90
20560;DHT22;10438;51.454;6.718;2023-07-22T08:41:50;19.10;99.90
20560;DHT22;10438;51.454;6.718;2023-07-22T08:44:19;19.40;99.90
20560;DHT22;10438;51.454;6.718;2023-07-22T08:46:46;19.60;99.90
20560;DHT22;10438;51.454;6.718;2023-07-22T08:49:12;19.60;99.90
20560;DHT22;10438;51.454;6.718;2023-07-22T08:51:39;19.60;99.90
20560;DHT22;10438;51.454;6.718;2023-07-22T08:54:05;19.60;99.90
20560;DHT22;10438;51.454;6.718;2023-07-22T08:56:31;19.60;99.90
20560;DHT22;10438;51.454;6.718;2023-07-22T08:58:58;19.70;99.90
20560;DHT22;10438;51.454;6.718;2023-07-22T09:01:24;19.70;99.90
20560;DHT22;10438;51.454;6.718;2023-07-22T09:03:50;19.60;99.90
20560;DHT22;10438;51.454;6.718;2023-07-22T09:06:19;19.50;99.90
20560;DHT22;10438;51.454;6.718;2023-07-22T09:08:45;19.60;99.90
20560;DHT22;10438;51.454;6.718;2023-07-22T09:11:11;19.70;99.90
20560;DHT22;10438;51.454;6.718;2023-07-22T09:13:37;19.80;99.90
20560;DHT22;10438;51.454;6.718;2023-07-22T09:16:06;19.70;99.90
20560;DHT22;10438;51.454;6.718;2023-07-22T09:18:34;19.70;99.90
20560;DHT22;10438;51.454;6.718;2023-07-22T09:21:00;20.00;99.90
20560;DHT22;10438;51.454;6.718;2023-07-22T09:23:36;20.20;99.90
20560;DHT22;10438;51.454;6.718;2023-07-22T09:26:12;20.10;99.90
20560;DHT22;10438;51.454;6.718;2023-07-22T09:28:52;20.10;99.90
20560;DHT22;10438;51.454;6.718;2023-07-22T09:31:19;20.00;99.90
20560;DHT22;10438;51.454;6.718;2023-07-22T09:33:45;20.20;99.90
20560;DHT22;10438;51.454;6.718;2023-07-22T09:36:11;20.30;99.90
20560;DHT22;10438;51.454;6.718;2023-07-22T09:38:37;20.30;99.90
20560;DHT22;10438;51.454;6.718;2023-07-22T09:41:02;20.20;99.90
20560;DHT22;10438;51.454;6.718;2023-07-22T09:43:29;20.10;99.90
20560;DHT22;10438;51.454;6.718;2023-07-22T09:45:55;20.40;99.90
20560;DHT22;10438;51.454;6.718;2023-07-22T09:48:22;20.70;99.90
20560;DHT22;10438;51.454;6.718;2023-07-22T09:50:57;21.00;98.90
20560;DHT22;10438;51.454;6.718;2023-07-22T09:53:23;21.10;99.90
20560;DHT22;10438;51.454;6.718;2023-07-22T09:55:52;21.10;99.90
20560;DHT22;10438;51.454;6.718;2023-07-22T09:58:18;21.20;98.20
20560;DHT22;10438;51.454;6.718;2023-07-22T10:00:48;21.00;97.10
20560;DHT22;10438;51.454;6.718;2023-07-22T10:03:16;20.90;97.00
20560;DHT22;10438;51.454;6.718;2023-07-22T10:05:44;20.70;98.60
20560;DHT22;10438;51.454;6.718;2023-07-22T10:08:12;20.80;98.20
20560;DHT22;10438;51.454;6.718;2023-07-22T10:10:39;20.90;99.90
20560;DHT22;10438;51.454;6.718;2023-07-22T10:13:08;21.20;97.20
20560;DHT22;10438;51.454;6.718;2023-07-22T10:15:34;21.30;95.80
20560;DHT22;10438;51.454;6.718;2023-07-22T10:18:04;21.50;92.80
20560;DHT22;10438;51.454;6.718;2023-07-22T10:20:32;21.30;93.50
20560;DHT22;10438;51.454;6.718;2023-07-22T10:23:02;21.40;92.80
20560;DHT22;10438;51.454;6.718;2023-07-22T10:25:29;21.40;93.60
20560;DHT22;10438;51.454;6.718;2023-07-22T10:27:55;21.70;91.90
20560;DHT22;10438;51.454;6.718;2023-07-22T10:30:21;21.90;86.60
20560;DHT22;10438;51.454;6.718;2023-07-22T10:32:52;22.00;68.90
20560;DHT22;10438;51.454;6.718;2023-07-22T10:37:55;21.80;72.70
20560;DHT22;10438;51.454;6.718;2023-07-22T10:40:28;21.30;70.50
20560;DHT22;10438;51.454;6.718;2023-07-22T10:43:03;21.20;76.40
20560;DHT22;10438;51.454;6.718;2023-07-22T10:45:31;21.50;76.90
20560;DHT22;10438;51.454;6.718;2023-07-22T10:48:06;21.90;77.70
20560;DHT22;10438;51.454;6.718;2023-07-22T10:50:43;22.30;69.90
20560;DHT22;10438;51.454;6.718;2023-07-22T10:53:10;22.40;60.80
20560;DHT22;10438;51.454;6.718;2023-07-22T10:56:04;22.30;56.40
20560;DHT22;10438;51.454;6.718;2023-07-22T11:12:00;22.30;58.20
20560;DHT22;10438;51.454;6.718;2023-07-22T11:14:28;22.30;56.10
20560;DHT22;10438;51.454;6.718;2023-07-22T11:16:55;22.40;51.40
20560;DHT22;10438;51.454;6.718;2023-07-22T11:19:22;22.30;56.80
20560;DHT22;10438;51.454;6.718;2023-07-22T11:21:52;22.90;65.10
20560;DHT22;10438;51.454;6.718;2023-07-22T11:24:19;23.40;52.60
20560;DHT22;10438;51.454;6.718;2023-07-22T11:26:46;23.40;51.30
20560;DHT22;10438;51.454;6.718;2023-07-22T11:29:12;23.70;55.60
20560;DHT22;10438;51.454;6.718;2023-07-22T11:31:41;24.20;40.80
20560;DHT22;10438;51.454;6.718;2023-07-22T11:34:08;23.80;41.40
20560;DHT22;10438;51.454;6.718;2023-07-22T11:36:34;23.50;48.30
20560;DHT22;10438;51.454;6.718;2023-07-22T11:39:22;23.80;48.50
20560;DHT22;10438;51.454;6.718;2023-07-22T11:41:48;24.00;36.50
20560;DHT22;10438;51.454;6.718;2023-07-22T11:44:16;23.70;37.50
20560;DHT22;10438;51.454;6.718;2023-07-22T11:47:01;23.60;36.50
20560;DHT22;10438;51.454;6.718;2023-07-22T11:49:33;23.30;32.10
20560;DHT22;10438;51.454;6.718;2023-07-22T11:52:09;23.10;38.20
20560;DHT22;10438;51.454;6.718;2023-07-22T11:54:39;23.10;36.30
20560;DHT22;10438;51.454;6.718;2023-07-22T11:57:17;22.90;36.90
20560;DHT22;10438;51.454;6.718;2023-07-22T11:59:54;22.90;38.10
20560;DHT22;10438;51.454;6.718;2023-07-22T12:02:25;23.10;32.80
20560;DHT22;10438;51.454;6.718;2023-07-22T12:04:56;23.00;21.30
20560;DHT22;10438;51.454;6.718;2023-07-22T12:07:24;22.70;15.60
20560;DHT22;10438;51.454;6.718;2023-07-22T12:09:52;22.80;19.30
20560;DHT22;10438;51.454;6.718;2023-07-22T12:12:18;23.10;23.60
20560;DHT22;10438;51.454;6.718;2023-07-22T12:14:43;23.20;21.90
20560;DHT22;10438;51.454;6.718;2023-07-22T12:17:09;23.50;27.50
20560;DHT22;10438;51.454;6.718;2023-07-22T12:19:35;23.40;23.80
20560;DHT22;10438;51.454;6.718;2023-07-22T12:22:01;22.80;26.40
20560;DHT22;10438;51.454;6.718;2023-07-22T12:24:27;22.70;28.80
20560;DHT22;10438;51.454;6.718;2023-07-22T12:26:53;23.00;30.10
20560;DHT22;10438;51.454;6.718;2023-07-22T12:29:19;23.30;28.40
20560;DHT22;10438;51.454;6.718;2023-07-22T12:31:45;23.50;25.10
20560;DHT22;10438;51.454;6.718;2023-07-22T12:34:10;23.60;26.50
20560;DHT22;10438;51.454;6.718;2023-07-22T12:36:36;23.60;27.20
20560;DHT22;10438;51.454;6.718;2023-07-22T12:39:01;23.50;26.20
20560;DHT22;10438;51.454;6.718;2023-07-22T12:41:27;23.40;25.90
20560;DHT22;10438;51.454;6.718;2023-07-22T12:43:52;23.50;22.50
20560;DHT22;10438;51.454;6.718;2023-07-22T12:46:18;23.80;22.20
20560;DHT22;10438;51.454;6.718;2023-07-22T12:48:43;23.60;15.40
20560;DHT22;10438;51.454;6.718;2023-07-22T12:51:09;23.30;16.40
20560;DHT22;10438;51.454;6.718;2023-07-22T12:53:35;23.10;19.40
20560;DHT22;10438;51.454;6.718;2023-07-22T12:56:00;22.90;18.40
20560;DHT22;10438;51.454;6.718;2023-07-22T12:58:28;22.60;21.70
20560;DHT22;10438;51.454;6.718;2023-07-22T13:00:54;22.50;25.50
20560;DHT22;10438;51.454;6.718;2023-07-22T13:03:20;22.60;26.50
20560;DHT22;10438;51.454;6.718;2023-07-22T13:05:45;22.70;26.50
20560;DHT22;10438;51.454;6.718;2023-07-22T13:08:11;22.90;29.20
20560;DHT22;10438;51.454;6.718;2023-07-22T13:10:37;23.00;24.40
20560;DHT22;10438;51.454;6.718;2023-07-22T13:13:04;22.90;24.90
20560;DHT22;10438;51.454;6.718;2023-07-22T13:15:30;22.80;24.80
20560;DHT22;10438;51.454;6.718;2023-07-22T13:17:56;22.50;26.80
20560;DHT22;10438;51.454;6.718;2023-07-22T13:20:21;22.40;32.00
20560;DHT22;10438;51.454;6.718;2023-07-22T13:22:47;22.60;30.90
20560;DHT22;10438;51.454;6.718;2023-07-22T13:25:13;22.60;30.80
20560;DHT22;10438;51.454;6.718;2023-07-22T13:27:38;22.90;28.10
20560;DHT22;10438;51.454;6.718;2023-07-22T13:30:07;23.00;23.60
20560;DHT22;10438;51.454;6.718;2023-07-22T13:32:32;22.90;22.90
20560;DHT22;10438;51.454;6.718;2023-07-22T13:34:58;22.80;22.10
20560;DHT22;10438;51.454;6.718;2023-07-22T13:37:23;22.80;23.20
20560;DHT22;10438;51.454;6.718;2023-07-22T13:39:49;22.80;23.40
20560;DHT22;10438;51.454;6.718;2023-07-22T13:42:14;22.90;24.90
20560;DHT22;10438;51.454;6.718;2023-07-22T13:44:40;22.90;22.20
20560;DHT22;10438;51.454;6.718;2023-07-22T13:47:05;22.90;17.20
20560;DHT22;10438;51.454;6.718;2023-07-22T13:49:31;23.00;19.40
20560;DHT22;10438;51.454;6.718;2023-07-22T13:51:56;23.00;18.80
20560;DHT22;10438;51.454;6.718;2023-07-22T13:54:22;22.90;19.90
20560;DHT22;10438;51.454;6.718;2023-07-22T13:56:47;23.10;22.60
20560;DHT22;10438;51.454;6.718;2023-07-22T13:59:14;23.70;21.00
20560;DHT22;10438;51.454;6.718;2023-07-22T14:01:39;24.40;9.70
20560;DHT22;10438;51.454;6.718;2023-07-22T14:04:05;24.40;8.60
20560;DHT22;10438;51.454;6.718;2023-07-22T14:06:31;24.30;8.50
20560;DHT22;10438;51.454;6.718;2023-07-22T14:08:58;24.40;5.50
20560;DHT22;10438;51.454;6.718;2023-07-22T14:11:23;24.30;6.80
20560;DHT22;10438;51.454;6.718;2023-07-22T14:13:49;24.20;7.80
20560;DHT22;10438;51.454;6.718;2023-07-22T14:16:17;24.40;6.20
20560;DHT22;10438;51.454;6.718;2023-07-22T14:18:43;24.60;7.40
20560;DHT22;10438;51.454;6.718;2023-07-22T14:21:08;24.40;4.00
20560;DHT22;10438;51.454;6.718;2023-07-22T14:23:36;24.10;6.30
20560;DHT22;10438;51.454;6.718;2023-07-22T14:26:02;23.90;5.70
20560;DHT22;10438;51.454;6.718;2023-07-22T14:28:27;23.80;8.30
20560;DHT22;10438;51.454;6.718;2023-07-22T14:30:53;23.60;3.60
20560;DHT22;10438;51.454;6.718;2023-07-22T14:33:18;23.40;7.80
20560;DHT22;10438;51.454;6.718;2023-07-22T14:35:44;23.40;9.70
20560;DHT22;10438;51.454;6.718;2023-07-22T14:38:10;23.30;8.10
20560;DHT22;10438;51.454;6.718;2023-07-22T14:40:36;23.70;7.60
20560;DHT22;10438;51.454;6.718;2023-07-22T14:43:02;23.90;6.60
20560;DHT22;10438;51.454;6.718;2023-07-22T14:45:27;23.70;3.20
20560;DHT22;10438;51.454;6.718;2023-07-22T14:47:53;23.90;3.70
20560;DHT22;10438;51.454;6.718;2023-07-22T14:50:18;23.90;3.70
20560;DHT22;10438;51.454;6.718;2023-07-22T14:52:44;24.00;1.90
20560;DHT22;10438;51.454;6.718;2023-07-22T14:55:09;23.80;3.60
20560;DHT22;10438;51.454;6.718;2023-07-22T14:57:35;23.90;3.00
20560;DHT22;10438;51.454;6.718;2023-07-22T15:00:00;24.00;4.50
20560;DHT22;10438;51.454;6.718;2023-07-22T15:02:26;24.00;3.50
20560;DHT22;10438;51.454;6.718;2023-07-22T15:04:51;23.70;4.00
20560;DHT22;10438;51.454;6.718;2023-07-22T15:07:17;23.50;4.60
20560;DHT22;10438;51.454;6.718;2023-07-22T15:09:42;23.60;6.50
20560;DHT22;10438;51.454;6.718;2023-07-22T15:12:08;23.70;3.80
20560;DHT22;10438;51.454;6.718;2023-07-22T15:14:36;23.80;5.30
20560;DHT22;10438;51.454;6.718;2023-07-22T15:17:02;24.70;2.80
20560;DHT22;10438;51.454;6.718;2023-07-22T15:19:27;25.40;1.00
20560;DHT22;10438;51.454;6.718;2023-07-22T15:21:53;25.30;1.00
20560;DHT22;10438;51.454;6.718;2023-07-22T15:24:19;25.40;1.00
20560;DHT22;10438;51.454;6.718;2023-07-22T15:26:44;25.30;1.00
20560;DHT22;10438;51.454;6.718;2023-07-22T15:29:10;25.20;1.00
20560;DHT22;10438;51.454;6.718;2023-07-22T15:31:36;24.90;1.00
20560;DHT22;10438;51.454;6.718;2023-07-22T15:34:01;24.60;1.00
20560;DHT22;10438;51.454;6.718;2023-07-22T15:36:27;24.20;1.00
20560;DHT22;10438;51.454;6.718;2023-07-22T15:38:53;24.10;1.00
20560;DHT22;10438;51.454;6.718;2023-07-22T15:41:18;24.00;1.00
20560;DHT22;10438;51.454;6.718;2023-07-22T15:43:44;24.10;1.00